Řízení letového provozu České republiky
Letiste: LKKV Aktualizace: 17.10.2017 23:36:04  UTC
 METAR LKKV 17.10. 23:00 ...
METAR LKKV 172300Z 10003KT CAVOK 08/07 Q1020 RMK REG QNH 1017=
 TAF LKKV 17.10. 23:00 ...
TAF LKKV 172300Z 1800/1906 VRB02KT 3000 BR NSC      TEMPO 1800/1808 1100 BR SCT003      PROB30 TEMPO 1802/1808 0300 FG BKN001      BECMG 1808/1810 16004KT 5000 BR SCT017      BECMG 1810/1812 CAVOK      BECMG 1821/1900 1300 BR SCT005      TEMPO 1900/1906 0500 FG BKN002=